sensor_id;sensor_type;location;lat;lon;timestamp;P1;durP1;ratioP1;P2;durP2;ratioP2
52854;SDS011;38719;51.418;7.286;2022-11-20T00:00:23;29.45;;;12.70;;
52854;SDS011;38719;51.418;7.286;2022-11-20T00:02:51;22.88;;;12.30;;
52854;SDS011;38719;51.418;7.286;2022-11-20T00:05:18;27.17;;;13.52;;
52854;SDS011;38719;51.418;7.286;2022-11-20T00:07:48;28.08;;;12.98;;
52854;SDS011;38719;51.418;7.286;2022-11-20T00:10:15;21.80;;;11.07;;
52854;SDS011;38719;51.418;7.286;2022-11-20T00:12:43;21.60;;;11.05;;
52854;SDS011;38719;51.418;7.286;2022-11-20T00:15:10;17.90;;;10.05;;
52854;SDS011;38719;51.418;7.286;2022-11-20T00:17:38;26.23;;;11.88;;
52854;SDS011;38719;51.418;7.286;2022-11-20T00:20:05;21.42;;;10.55;;
52854;SDS011;38719;51.418;7.286;2022-11-20T00:22:33;24.00;;;12.15;;
52854;SDS011;38719;51.418;7.286;2022-11-20T00:25:02;23.95;;;12.18;;
52854;SDS011;38719;51.418;7.286;2022-11-20T00:27:30;22.90;;;11.45;;
52854;SDS011;38719;51.418;7.286;2022-11-20T00:29:58;22.33;;;11.38;;
52854;SDS011;38719;51.418;7.286;2022-11-20T00:32:25;19.65;;;10.23;;
52854;SDS011;38719;51.418;7.286;2022-11-20T00:34:52;20.75;;;11.18;;
52854;SDS011;38719;51.418;7.286;2022-11-20T00:37:20;20.75;;;11.10;;
52854;SDS011;38719;51.418;7.286;2022-11-20T00:39:47;22.80;;;11.82;;
52854;SDS011;38719;51.418;7.286;2022-11-20T00:42:16;29.10;;;13.82;;
52854;SDS011;38719;51.418;7.286;2022-11-20T00:44:44;24.98;;;13.27;;
52854;SDS011;38719;51.418;7.286;2022-11-20T00:47:11;25.38;;;13.18;;
52854;SDS011;38719;51.418;7.286;2022-11-20T00:49:39;22.50;;;11.77;;
52854;SDS011;38719;51.418;7.286;2022-11-20T00:52:06;19.60;;;10.90;;
52854;SDS011;38719;51.418;7.286;2022-11-20T00:54:34;22.38;;;10.73;;
52854;SDS011;38719;51.418;7.286;2022-11-20T00:57:01;21.75;;;10.93;;
52854;SDS011;38719;51.418;7.286;2022-11-20T00:59:30;20.83;;;10.90;;
52854;SDS011;38719;51.418;7.286;2022-11-20T01:01:57;22.75;;;11.05;;
52854;SDS011;38719;51.418;7.286;2022-11-20T01:04:25;18.55;;;10.45;;
52854;SDS011;38719;51.418;7.286;2022-11-20T01:06:52;19.65;;;11.15;;
52854;SDS011;38719;51.418;7.286;2022-11-20T01:09:20;22.08;;;11.35;;
52854;SDS011;38719;51.418;7.286;2022-11-20T01:11:48;25.92;;;11.52;;
52854;SDS011;38719;51.418;7.286;2022-11-20T01:14:16;20.77;;;11.07;;
52854;SDS011;38719;51.418;7.286;2022-11-20T01:16:48;20.45;;;11.18;;
52854;SDS011;38719;51.418;7.286;2022-11-20T01:19:17;17.90;;;10.07;;
52854;SDS011;38719;51.418;7.286;2022-11-20T01:21:48;21.13;;;9.80;;
52854;SDS011;38719;51.418;7.286;2022-11-20T01:24:19;17.45;;;10.45;;
52854;SDS011;38719;51.418;7.286;2022-11-20T01:26:48;16.65;;;9.48;;
52854;SDS011;38719;51.418;7.286;2022-11-20T01:29:18;19.40;;;8.77;;
52854;SDS011;38719;51.418;7.286;2022-11-20T01:31:49;18.58;;;9.82;;
52854;SDS011;38719;51.418;7.286;2022-11-20T01:34:18;17.08;;;9.02;;
52854;SDS011;38719;51.418;7.286;2022-11-20T01:36:46;19.95;;;10.05;;
52854;SDS011;38719;51.418;7.286;2022-11-20T01:39:15;18.10;;;8.88;;
52854;SDS011;38719;51.418;7.286;2022-11-20T01:41:44;14.10;;;8.05;;
52854;SDS011;38719;51.418;7.286;2022-11-20T01:44:43;15.32;;;7.88;;
52854;SDS011;38719;51.418;7.286;2022-11-20T01:47:17;14.65;;;8.77;;
52854;SDS011;38719;51.418;7.286;2022-11-20T01:49:50;18.43;;;9.37;;
52854;SDS011;38719;51.418;7.286;2022-11-20T01:52:23;16.83;;;9.88;;
52854;SDS011;38719;51.418;7.286;2022-11-20T01:54:54;15.30;;;8.93;;
52854;SDS011;38719;51.418;7.286;2022-11-20T01:57:25;18.77;;;9.68;;
52854;SDS011;38719;51.418;7.286;2022-11-20T01:59:58;21.70;;;9.82;;
52854;SDS011;38719;51.418;7.286;2022-11-20T02:02:30;13.73;;;8.23;;
52854;SDS011;38719;51.418;7.286;2022-11-20T02:04:58;15.15;;;7.85;;
52854;SDS011;38719;51.418;7.286;2022-11-20T02:07:31;17.25;;;7.68;;
52854;SDS011;38719;51.418;7.286;2022-11-20T02:09:59;15.00;;;8.02;;
52854;SDS011;38719;51.418;7.286;2022-11-20T02:12:26;19.45;;;8.98;;
52854;SDS011;38719;51.418;7.286;2022-11-20T02:15:12;13.25;;;7.95;;
52854;SDS011;38719;51.418;7.286;2022-11-20T02:17:41;19.92;;;10.13;;
52854;SDS011;38719;51.418;7.286;2022-11-20T02:20:08;17.58;;;9.65;;
52854;SDS011;38719;51.418;7.286;2022-11-20T02:22:38;16.77;;;9.90;;
52854;SDS011;38719;51.418;7.286;2022-11-20T02:25:16;16.77;;;9.00;;
52854;SDS011;38719;51.418;7.286;2022-11-20T02:27:45;13.70;;;8.00;;
52854;SDS011;38719;51.418;7.286;2022-11-20T02:30:13;18.20;;;8.90;;
52854;SDS011;38719;51.418;7.286;2022-11-20T02:32:41;16.30;;;8.80;;
52854;SDS011;38719;51.418;7.286;2022-11-20T02:35:09;18.98;;;10.00;;
52854;SDS011;38719;51.418;7.286;2022-11-20T02:37:58;16.40;;;9.02;;
52854;SDS011;38719;51.418;7.286;2022-11-20T02:40:28;16.67;;;8.32;;
52854;SDS011;38719;51.418;7.286;2022-11-20T02:42:56;20.08;;;10.10;;
52854;SDS011;38719;51.418;7.286;2022-11-20T02:45:25;19.08;;;9.85;;
52854;SDS011;38719;51.418;7.286;2022-11-20T02:47:52;16.10;;;9.20;;
52854;SDS011;38719;51.418;7.286;2022-11-20T02:50:20;18.50;;;8.43;;
52854;SDS011;38719;51.418;7.286;2022-11-20T02:52:48;17.13;;;9.52;;
52854;SDS011;38719;51.418;7.286;2022-11-20T02:55:15;16.60;;;8.63;;
52854;SDS011;38719;51.418;7.286;2022-11-20T02:57:44;13.82;;;8.30;;
52854;SDS011;38719;51.418;7.286;2022-11-20T03:00:12;14.75;;;7.95;;
52854;SDS011;38719;51.418;7.286;2022-11-20T03:02:40;12.95;;;7.53;;
52854;SDS011;38719;51.418;7.286;2022-11-20T03:05:07;14.20;;;7.28;;
52854;SDS011;38719;51.418;7.286;2022-11-20T03:07:35;14.23;;;7.35;;
52854;SDS011;38719;51.418;7.286;2022-11-20T03:10:03;14.82;;;8.63;;
52854;SDS011;38719;51.418;7.286;2022-11-20T03:12:31;15.10;;;8.00;;
52854;SDS011;38719;51.418;7.286;2022-11-20T03:15:00;16.25;;;8.52;;
52854;SDS011;38719;51.418;7.286;2022-11-20T03:17:27;16.50;;;8.77;;
52854;SDS011;38719;51.418;7.286;2022-11-20T03:19:55;14.60;;;8.38;;
52854;SDS011;38719;51.418;7.286;2022-11-20T03:22:22;14.68;;;8.45;;
52854;SDS011;38719;51.418;7.286;2022-11-20T03:24:50;12.68;;;8.38;;
52854;SDS011;38719;51.418;7.286;2022-11-20T03:27:18;18.58;;;9.38;;
52854;SDS011;38719;51.418;7.286;2022-11-20T03:29:45;19.38;;;9.70;;
52854;SDS011;38719;51.418;7.286;2022-11-20T03:32:14;15.27;;;9.07;;
52854;SDS011;38719;51.418;7.286;2022-11-20T03:34:41;19.75;;;9.85;;
52854;SDS011;38719;51.418;7.286;2022-11-20T03:37:09;19.30;;;9.38;;
52854;SDS011;38719;51.418;7.286;2022-11-20T03:39:36;18.75;;;10.35;;
52854;SDS011;38719;51.418;7.286;2022-11-20T03:42:04;15.50;;;8.57;;
52854;SDS011;38719;51.418;7.286;2022-11-20T03:44:51;18.20;;;10.05;;
52854;SDS011;38719;51.418;7.286;2022-11-20T03:47:20;16.17;;;8.82;;
52854;SDS011;38719;51.418;7.286;2022-11-20T03:49:48;15.32;;;8.35;;
52854;SDS011;38719;51.418;7.286;2022-11-20T03:52:15;14.27;;;8.65;;
52854;SDS011;38719;51.418;7.286;2022-11-20T03:54:43;15.15;;;9.20;;
52854;SDS011;38719;51.418;7.286;2022-11-20T03:57:10;14.70;;;7.90;;
52854;SDS011;38719;51.418;7.286;2022-11-20T03:59:38;14.35;;;8.27;;
52854;SDS011;38719;51.418;7.286;2022-11-20T04:02:05;16.27;;;9.25;;
52854;SDS011;38719;51.418;7.286;2022-11-20T04:04:34;16.63;;;9.23;;
52854;SDS011;38719;51.418;7.286;2022-11-20T04:07:01;15.60;;;8.80;;
52854;SDS011;38719;51.418;7.286;2022-11-20T04:09:29;15.60;;;8.90;;
52854;SDS011;38719;51.418;7.286;2022-11-20T04:11:57;17.30;;;9.88;;
52854;SDS011;38719;51.418;7.286;2022-11-20T04:14:24;15.85;;;8.77;;
52854;SDS011;38719;51.418;7.286;2022-11-20T04:16:52;15.38;;;9.43;;
52854;SDS011;38719;51.418;7.286;2022-11-20T04:19:19;17.08;;;9.57;;
52854;SDS011;38719;51.418;7.286;2022-11-20T04:21:48;17.75;;;9.63;;
52854;SDS011;38719;51.418;7.286;2022-11-20T04:24:16;18.45;;;9.55;;
52854;SDS011;38719;51.418;7.286;2022-11-20T04:26:43;18.83;;;9.25;;
52854;SDS011;38719;51.418;7.286;2022-11-20T04:29:11;17.55;;;9.73;;
52854;SDS011;38719;51.418;7.286;2022-11-20T04:31:39;16.45;;;8.95;;
52854;SDS011;38719;51.418;7.286;2022-11-20T04:34:06;17.52;;;9.00;;
52854;SDS011;38719;51.418;7.286;2022-11-20T04:36:34;16.77;;;9.27;;
52854;SDS011;38719;51.418;7.286;2022-11-20T04:39:04;14.90;;;8.60;;
52854;SDS011;38719;51.418;7.286;2022-11-20T04:41:33;15.57;;;8.93;;
52854;SDS011;38719;51.418;7.286;2022-11-20T04:44:04;15.70;;;9.13;;
52854;SDS011;38719;51.418;7.286;2022-11-20T04:46:33;18.70;;;9.65;;
52854;SDS011;38719;51.418;7.286;2022-11-20T04:49:03;16.88;;;8.45;;
52854;SDS011;38719;51.418;7.286;2022-11-20T04:51:31;18.98;;;9.20;;
52854;SDS011;38719;51.418;7.286;2022-11-20T04:53:58;16.45;;;8.30;;
52854;SDS011;38719;51.418;7.286;2022-11-20T04:56:27;14.15;;;8.25;;
52854;SDS011;38719;51.418;7.286;2022-11-20T04:58:55;18.30;;;9.60;;
52854;SDS011;38719;51.418;7.286;2022-11-20T05:01:23;16.83;;;10.13;;
52854;SDS011;38719;51.418;7.286;2022-11-20T05:03:51;19.23;;;10.32;;
52854;SDS011;38719;51.418;7.286;2022-11-20T05:06:20;15.40;;;8.80;;
52854;SDS011;38719;51.418;7.286;2022-11-20T05:08:48;14.27;;;8.38;;
52854;SDS011;38719;51.418;7.286;2022-11-20T05:11:17;13.85;;;8.50;;
52854;SDS011;38719;51.418;7.286;2022-11-20T05:13:47;15.55;;;8.98;;
52854;SDS011;38719;51.418;7.286;2022-11-20T05:16:15;17.60;;;9.20;;
52854;SDS011;38719;51.418;7.286;2022-11-20T05:18:45;17.17;;;9.18;;
52854;SDS011;38719;51.418;7.286;2022-11-20T05:21:13;14.90;;;9.07;;
52854;SDS011;38719;51.418;7.286;2022-11-20T05:23:41;16.25;;;9.20;;
52854;SDS011;38719;51.418;7.286;2022-11-20T05:26:12;16.02;;;9.15;;
52854;SDS011;38719;51.418;7.286;2022-11-20T05:28:41;13.80;;;8.10;;
52854;SDS011;38719;51.418;7.286;2022-11-20T05:31:11;13.50;;;8.15;;
52854;SDS011;38719;51.418;7.286;2022-11-20T05:33:39;16.92;;;9.23;;
52854;SDS011;38719;51.418;7.286;2022-11-20T05:36:08;19.25;;;8.90;;
52854;SDS011;38719;51.418;7.286;2022-11-20T05:38:36;16.42;;;8.27;;
52854;SDS011;38719;51.418;7.286;2022-11-20T05:41:04;13.85;;;8.45;;
52854;SDS011;38719;51.418;7.286;2022-11-20T05:43:33;17.67;;;8.80;;
52854;SDS011;38719;51.418;7.286;2022-11-20T05:46:01;15.00;;;7.97;;
52854;SDS011;38719;51.418;7.286;2022-11-20T05:48:30;15.30;;;8.65;;
52854;SDS011;38719;51.418;7.286;2022-11-20T05:50:59;16.83;;;8.82;;
52854;SDS011;38719;51.418;7.286;2022-11-20T05:53:27;14.48;;;7.45;;
52854;SDS011;38719;51.418;7.286;2022-11-20T05:55:57;14.02;;;8.60;;
52854;SDS011;38719;51.418;7.286;2022-11-20T05:58:26;16.27;;;8.20;;
52854;SDS011;38719;51.418;7.286;2022-11-20T06:00:54;14.35;;;8.30;;
52854;SDS011;38719;51.418;7.286;2022-11-20T06:03:22;17.60;;;10.43;;
52854;SDS011;38719;51.418;7.286;2022-11-20T06:05:51;18.63;;;9.30;;
52854;SDS011;38719;51.418;7.286;2022-11-20T06:08:18;16.67;;;8.98;;
52854;SDS011;38719;51.418;7.286;2022-11-20T06:10:46;16.17;;;9.07;;
52854;SDS011;38719;51.418;7.286;2022-11-20T06:13:13;18.83;;;8.90;;
52854;SDS011;38719;51.418;7.286;2022-11-20T06:15:41;19.45;;;9.25;;
52854;SDS011;38719;51.418;7.286;2022-11-20T06:18:08;17.50;;;8.30;;
52854;SDS011;38719;51.418;7.286;2022-11-20T06:20:36;18.02;;;8.73;;
52854;SDS011;38719;51.418;7.286;2022-11-20T06:23:08;16.58;;;8.93;;
52854;SDS011;38719;51.418;7.286;2022-11-20T06:25:37;16.33;;;8.70;;
52854;SDS011;38719;51.418;7.286;2022-11-20T06:28:04;15.52;;;8.60;;
52854;SDS011;38719;51.418;7.286;2022-11-20T06:30:32;15.90;;;8.55;;
52854;SDS011;38719;51.418;7.286;2022-11-20T06:33:00;15.15;;;8.38;;
52854;SDS011;38719;51.418;7.286;2022-11-20T06:35:27;13.95;;;8.70;;
52854;SDS011;38719;51.418;7.286;2022-11-20T06:37:55;12.43;;;8.18;;
52854;SDS011;38719;51.418;7.286;2022-11-20T06:40:24;15.40;;;8.73;;
52854;SDS011;38719;51.418;7.286;2022-11-20T06:42:53;12.63;;;8.18;;
52854;SDS011;38719;51.418;7.286;2022-11-20T06:45:20;15.15;;;8.20;;
52854;SDS011;38719;51.418;7.286;2022-11-20T06:47:48;12.95;;;8.15;;
52854;SDS011;38719;51.418;7.286;2022-11-20T06:50:15;14.65;;;7.80;;
52854;SDS011;38719;51.418;7.286;2022-11-20T06:52:43;13.20;;;7.63;;
52854;SDS011;38719;51.418;7.286;2022-11-20T06:55:10;13.27;;;7.90;;
52854;SDS011;38719;51.418;7.286;2022-11-20T06:57:39;12.43;;;7.80;;
52854;SDS011;38719;51.418;7.286;2022-11-20T07:00:07;14.05;;;7.88;;
52854;SDS011;38719;51.418;7.286;2022-11-20T07:02:35;12.80;;;8.05;;
52854;SDS011;38719;51.418;7.286;2022-11-20T07:05:03;14.68;;;8.18;;
52854;SDS011;38719;51.418;7.286;2022-11-20T07:07:30;14.27;;;8.55;;
52854;SDS011;38719;51.418;7.286;2022-11-20T07:09:58;19.08;;;8.48;;
52854;SDS011;38719;51.418;7.286;2022-11-20T07:12:25;13.13;;;7.75;;
52854;SDS011;38719;51.418;7.286;2022-11-20T07:14:54;12.50;;;7.97;;
52854;SDS011;38719;51.418;7.286;2022-11-20T07:17:22;13.93;;;8.30;;
52854;SDS011;38719;51.418;7.286;2022-11-20T07:19:50;12.05;;;7.35;;
52854;SDS011;38719;51.418;7.286;2022-11-20T07:22:17;12.60;;;7.55;;
52854;SDS011;38719;51.418;7.286;2022-11-20T07:24:47;16.52;;;9.70;;
52854;SDS011;38719;51.418;7.286;2022-11-20T07:27:15;23.02;;;13.48;;
52854;SDS011;38719;51.418;7.286;2022-11-20T07:29:42;22.20;;;13.07;;
52854;SDS011;38719;51.418;7.286;2022-11-20T07:32:11;21.80;;;12.93;;
52854;SDS011;38719;51.418;7.286;2022-11-20T07:34:39;20.65;;;12.27;;
52854;SDS011;38719;51.418;7.286;2022-11-20T07:37:06;19.23;;;9.85;;
52854;SDS011;38719;51.418;7.286;2022-11-20T07:39:35;15.43;;;10.23;;
52854;SDS011;38719;51.418;7.286;2022-11-20T07:42:03;15.38;;;9.27;;
52854;SDS011;38719;51.418;7.286;2022-11-20T07:44:30;13.90;;;9.02;;
52854;SDS011;38719;51.418;7.286;2022-11-20T07:46:58;16.25;;;9.57;;
52854;SDS011;38719;51.418;7.286;2022-11-20T07:49:27;12.75;;;9.00;;
52854;SDS011;38719;51.418;7.286;2022-11-20T07:51:54;15.43;;;9.00;;
52854;SDS011;38719;51.418;7.286;2022-11-20T07:54:29;18.23;;;9.57;;
52854;SDS011;38719;51.418;7.286;2022-11-20T07:56:56;15.52;;;8.52;;
52854;SDS011;38719;51.418;7.286;2022-11-20T07:59:24;18.95;;;9.98;;
52854;SDS011;38719;51.418;7.286;2022-11-20T08:01:51;16.33;;;8.98;;
52854;SDS011;38719;51.418;7.286;2022-11-20T08:04:19;15.77;;;9.00;;
52854;SDS011;38719;51.418;7.286;2022-11-20T08:06:48;16.35;;;9.73;;
52854;SDS011;38719;51.418;7.286;2022-11-20T08:09:15;15.88;;;9.27;;
52854;SDS011;38719;51.418;7.286;2022-11-20T08:11:43;15.85;;;8.27;;
52854;SDS011;38719;51.418;7.286;2022-11-20T08:14:28;16.37;;;9.07;;
52854;SDS011;38719;51.418;7.286;2022-11-20T08:16:55;15.48;;;9.07;;
52854;SDS011;38719;51.418;7.286;2022-11-20T08:19:23;17.25;;;9.82;;
52854;SDS011;38719;51.418;7.286;2022-11-20T08:21:52;15.82;;;9.48;;
52854;SDS011;38719;51.418;7.286;2022-11-20T08:24:19;15.68;;;9.13;;
52854;SDS011;38719;51.418;7.286;2022-11-20T08:26:46;19.33;;;9.48;;
52854;SDS011;38719;51.418;7.286;2022-11-20T08:29:14;20.02;;;10.18;;
52854;SDS011;38719;51.418;7.286;2022-11-20T08:31:41;16.90;;;10.20;;
52854;SDS011;38719;51.418;7.286;2022-11-20T08:34:09;19.73;;;10.15;;
52854;SDS011;38719;51.418;7.286;2022-11-20T08:36:43;15.90;;;9.13;;
52854;SDS011;38719;51.418;7.286;2022-11-20T08:39:12;18.50;;;10.32;;
52854;SDS011;38719;51.418;7.286;2022-11-20T08:41:40;15.05;;;9.65;;
52854;SDS011;38719;51.418;7.286;2022-11-20T08:44:08;21.45;;;10.27;;
52854;SDS011;38719;51.418;7.286;2022-11-20T08:46:36;16.60;;;9.65;;
52854;SDS011;38719;51.418;7.286;2022-11-20T08:49:05;19.23;;;10.43;;
52854;SDS011;38719;51.418;7.286;2022-11-20T08:51:34;17.63;;;10.20;;
52854;SDS011;38719;51.418;7.286;2022-11-20T08:54:02;19.65;;;9.48;;
52854;SDS011;38719;51.418;7.286;2022-11-20T08:56:32;20.02;;;10.18;;
52854;SDS011;38719;51.418;7.286;2022-11-20T08:59:01;22.02;;;10.30;;
52854;SDS011;38719;51.418;7.286;2022-11-20T09:01:48;18.38;;;9.88;;
52854;SDS011;38719;51.418;7.286;2022-11-20T09:04:16;20.23;;;10.88;;
52854;SDS011;38719;51.418;7.286;2022-11-20T09:06:43;19.25;;;9.73;;
52854;SDS011;38719;51.418;7.286;2022-11-20T09:09:11;18.63;;;10.70;;
52854;SDS011;38719;51.418;7.286;2022-11-20T09:11:39;16.75;;;9.90;;
52854;SDS011;38719;51.418;7.286;2022-11-20T09:14:07;19.52;;;10.52;;
52854;SDS011;38719;51.418;7.286;2022-11-20T09:16:34;20.63;;;10.73;;
52854;SDS011;38719;51.418;7.286;2022-11-20T09:19:02;20.70;;;10.77;;
52854;SDS011;38719;51.418;7.286;2022-11-20T09:21:49;19.33;;;10.10;;
52854;SDS011;38719;51.418;7.286;2022-11-20T09:24:24;17.30;;;9.43;;
52854;SDS011;38719;51.418;7.286;2022-11-20T09:26:53;17.08;;;9.05;;
52854;SDS011;38719;51.418;7.286;2022-11-20T09:29:20;19.15;;;9.90;;
52854;SDS011;38719;51.418;7.286;2022-11-20T09:31:48;15.80;;;9.48;;
52854;SDS011;38719;51.418;7.286;2022-11-20T09:34:16;16.55;;;9.65;;
52854;SDS011;38719;51.418;7.286;2022-11-20T09:36:43;17.23;;;9.45;;
52854;SDS011;38719;51.418;7.286;2022-11-20T09:39:11;19.67;;;10.93;;
52854;SDS011;38719;51.418;7.286;2022-11-20T09:41:43;22.05;;;11.05;;
52854;SDS011;38719;51.418;7.286;2022-11-20T09:44:27;21.05;;;11.00;;
52854;SDS011;38719;51.418;7.286;2022-11-20T09:47:07;17.02;;;9.48;;
52854;SDS011;38719;51.418;7.286;2022-11-20T09:49:52;18.27;;;9.27;;
52854;SDS011;38719;51.418;7.286;2022-11-20T09:52:31;14.52;;;8.80;;
52854;SDS011;38719;51.418;7.286;2022-11-20T09:55:03;14.65;;;7.95;;
52854;SDS011;38719;51.418;7.286;2022-11-20T09:57:36;16.00;;;9.00;;
52854;SDS011;38719;51.418;7.286;2022-11-20T10:00:10;17.48;;;9.45;;
52854;SDS011;38719;51.418;7.286;2022-11-20T10:02:41;16.98;;;10.18;;
52854;SDS011;38719;51.418;7.286;2022-11-20T10:05:15;18.20;;;9.88;;
52854;SDS011;38719;51.418;7.286;2022-11-20T10:07:47;22.67;;;10.50;;
52854;SDS011;38719;51.418;7.286;2022-11-20T10:10:22;16.42;;;9.25;;
52854;SDS011;38719;51.418;7.286;2022-11-20T10:13:05;18.83;;;10.77;;
52854;SDS011;38719;51.418;7.286;2022-11-20T10:15:46;14.63;;;9.07;;
52854;SDS011;38719;51.418;7.286;2022-11-20T10:18:28;16.83;;;9.75;;
52854;SDS011;38719;51.418;7.286;2022-11-20T10:21:08;18.02;;;9.95;;
52854;SDS011;38719;51.418;7.286;2022-11-20T10:23:47;19.02;;;8.68;;
52854;SDS011;38719;51.418;7.286;2022-11-20T10:26:26;18.77;;;10.45;;
52854;SDS011;38719;51.418;7.286;2022-11-20T10:29:06;18.85;;;10.75;;
52854;SDS011;38719;51.418;7.286;2022-11-20T10:31:39;19.20;;;10.05;;
52854;SDS011;38719;51.418;7.286;2022-11-20T10:34:12;18.23;;;10.23;;
52854;SDS011;38719;51.418;7.286;2022-11-20T10:36:49;17.73;;;9.00;;
52854;SDS011;38719;51.418;7.286;2022-11-20T10:39:23;15.20;;;8.48;;
52854;SDS011;38719;51.418;7.286;2022-11-20T10:41:59;19.85;;;10.35;;
52854;SDS011;38719;51.418;7.286;2022-11-20T10:44:28;17.08;;;9.35;;
52854;SDS011;38719;51.418;7.286;2022-11-20T10:47:22;17.25;;;9.65;;
52854;SDS011;38719;51.418;7.286;2022-11-20T10:49:50;17.58;;;9.68;;
52854;SDS011;38719;51.418;7.286;2022-11-20T10:52:25;15.20;;;9.80;;
52854;SDS011;38719;51.418;7.286;2022-11-20T10:55:03;14.60;;;8.40;;
52854;SDS011;38719;51.418;7.286;2022-11-20T10:57:46;18.58;;;9.20;;
52854;SDS011;38719;51.418;7.286;2022-11-20T11:00:21;19.40;;;10.13;;
52854;SDS011;38719;51.418;7.286;2022-11-20T11:02:50;15.65;;;8.70;;
52854;SDS011;38719;51.418;7.286;2022-11-20T11:05:25;15.48;;;7.70;;
52854;SDS011;38719;51.418;7.286;2022-11-20T11:08:00;14.63;;;8.68;;
52854;SDS011;38719;51.418;7.286;2022-11-20T11:10:32;15.80;;;8.88;;
52854;SDS011;38719;51.418;7.286;2022-11-20T11:13:07;13.82;;;8.25;;
52854;SDS011;38719;51.418;7.286;2022-11-20T11:15:36;13.52;;;8.27;;
52854;SDS011;38719;51.418;7.286;2022-11-20T11:18:09;12.57;;;6.80;;
52854;SDS011;38719;51.418;7.286;2022-11-20T11:20:37;12.63;;;6.97;;
52854;SDS011;38719;51.418;7.286;2022-11-20T11:23:10;12.48;;;7.05;;
52854;SDS011;38719;51.418;7.286;2022-11-20T11:25:56;15.52;;;8.27;;
52854;SDS011;38719;51.418;7.286;2022-11-20T11:28:25;14.45;;;7.93;;
52854;SDS011;38719;51.418;7.286;2022-11-20T11:30:54;12.90;;;7.28;;
52854;SDS011;38719;51.418;7.286;2022-11-20T11:33:24;14.52;;;8.02;;
52854;SDS011;38719;51.418;7.286;2022-11-20T11:35:53;11.00;;;7.05;;
52854;SDS011;38719;51.418;7.286;2022-11-20T11:38:27;12.82;;;6.90;;
52854;SDS011;38719;51.418;7.286;2022-11-20T11:40:57;13.60;;;8.00;;
52854;SDS011;38719;51.418;7.286;2022-11-20T11:43:26;13.13;;;7.07;;
52854;SDS011;38719;51.418;7.286;2022-11-20T11:46:25;13.80;;;7.25;;
52854;SDS011;38719;51.418;7.286;2022-11-20T11:48:59;14.00;;;7.40;;
52854;SDS011;38719;51.418;7.286;2022-11-20T11:51:29;12.45;;;7.22;;
52854;SDS011;38719;51.418;7.286;2022-11-20T11:54:04;13.68;;;7.82;;
52854;SDS011;38719;51.418;7.286;2022-11-20T11:56:41;13.90;;;8.27;;
52854;SDS011;38719;51.418;7.286;2022-11-20T11:59:09;13.68;;;7.30;;
52854;SDS011;38719;51.418;7.286;2022-11-20T12:01:42;16.75;;;8.68;;
52854;SDS011;38719;51.418;7.286;2022-11-20T12:04:19;14.77;;;7.53;;
52854;SDS011;38719;51.418;7.286;2022-11-20T12:06:57;12.63;;;6.68;;
52854;SDS011;38719;51.418;7.286;2022-11-20T12:09:48;15.75;;;7.63;;
52854;SDS011;38719;51.418;7.286;2022-11-20T12:12:20;14.13;;;7.60;;
52854;SDS011;38719;51.418;7.286;2022-11-20T12:14:51;11.25;;;6.85;;
52854;SDS011;38719;51.418;7.286;2022-11-20T12:17:22;14.98;;;7.45;;
52854;SDS011;38719;51.418;7.286;2022-11-20T12:19:52;16.88;;;7.97;;
52854;SDS011;38719;51.418;7.286;2022-11-20T12:22:22;17.13;;;8.95;;
52854;SDS011;38719;51.418;7.286;2022-11-20T12:24:57;16.58;;;7.93;;
52854;SDS011;38719;51.418;7.286;2022-11-20T12:27:36;13.18;;;7.75;;
52854;SDS011;38719;51.418;7.286;2022-11-20T12:30:12;13.50;;;7.90;;
52854;SDS011;38719;51.418;7.286;2022-11-20T12:38:40;15.10;;;7.93;;
52854;SDS011;38719;51.418;7.286;2022-11-20T12:41:21;13.73;;;6.78;;
52854;SDS011;38719;51.418;7.286;2022-11-20T12:44:19;13.02;;;7.18;;
52854;SDS011;38719;51.418;7.286;2022-11-20T12:47:24;12.35;;;7.43;;
52854;SDS011;38719;51.418;7.286;2022-11-20T12:50:02;13.95;;;7.88;;
52854;SDS011;38719;51.418;7.286;2022-11-20T12:52:44;15.57;;;7.70;;
52854;SDS011;38719;51.418;7.286;2022-11-20T12:55:32;13.23;;;7.28;;
52854;SDS011;38719;51.418;7.286;2022-11-20T12:58:10;15.48;;;7.68;;
52854;SDS011;38719;51.418;7.286;2022-11-20T13:00:43;18.63;;;10.75;;
52854;SDS011;38719;51.418;7.286;2022-11-20T13:03:31;15.68;;;9.02;;
52854;SDS011;38719;51.418;7.286;2022-11-20T13:06:10;15.27;;;8.38;;
52854;SDS011;38719;51.418;7.286;2022-11-20T13:08:43;16.52;;;8.13;;
52854;SDS011;38719;51.418;7.286;2022-11-20T13:11:16;14.68;;;7.95;;
52854;SDS011;38719;51.418;7.286;2022-11-20T13:14:03;16.15;;;9.27;;
52854;SDS011;38719;51.418;7.286;2022-11-20T13:16:41;16.23;;;8.40;;
52854;SDS011;38719;51.418;7.286;2022-11-20T13:19:17;16.40;;;8.77;;
52854;SDS011;38719;51.418;7.286;2022-11-20T13:21:46;15.82;;;8.95;;
52854;SDS011;38719;51.418;7.286;2022-11-20T13:24:23;18.10;;;9.30;;
52854;SDS011;38719;51.418;7.286;2022-11-20T13:27:00;16.83;;;9.25;;
52854;SDS011;38719;51.418;7.286;2022-11-20T13:29:28;15.32;;;9.30;;
52854;SDS011;38719;51.418;7.286;2022-11-20T13:32:06;21.08;;;10.43;;
52854;SDS011;38719;51.418;7.286;2022-11-20T13:34:50;20.58;;;9.73;;
52854;SDS011;38719;51.418;7.286;2022-11-20T13:37:26;22.00;;;10.20;;
52854;SDS011;38719;51.418;7.286;2022-11-20T13:40:19;25.85;;;11.68;;
52854;SDS011;38719;51.418;7.286;2022-11-20T13:42:54;19.33;;;10.40;;
52854;SDS011;38719;51.418;7.286;2022-11-20T13:45:25;28.60;;;14.52;;
52854;SDS011;38719;51.418;7.286;2022-11-20T13:47:54;32.25;;;14.15;;
52854;SDS011;38719;51.418;7.286;2022-11-20T13:50:27;20.52;;;9.98;;
52854;SDS011;38719;51.418;7.286;2022-11-20T13:53:09;16.25;;;9.63;;
52854;SDS011;38719;51.418;7.286;2022-11-20T13:55:53;20.35;;;9.88;;
52854;SDS011;38719;51.418;7.286;2022-11-20T13:58:28;20.52;;;10.57;;
52854;SDS011;38719;51.418;7.286;2022-11-20T14:01:08;18.70;;;9.95;;
52854;SDS011;38719;51.418;7.286;2022-11-20T14:03:38;17.90;;;9.00;;
52854;SDS011;38719;51.418;7.286;2022-11-20T14:06:27;16.98;;;8.68;;
52854;SDS011;38719;51.418;7.286;2022-11-20T14:08:56;15.38;;;8.40;;
52854;SDS011;38719;51.418;7.286;2022-11-20T14:11:26;18.05;;;9.45;;
52854;SDS011;38719;51.418;7.286;2022-11-20T14:13:57;16.83;;;9.07;;
52854;SDS011;38719;51.418;7.286;2022-11-20T14:16:27;18.88;;;9.73;;
52854;SDS011;38719;51.418;7.286;2022-11-20T14:18:56;18.90;;;9.20;;
52854;SDS011;38719;51.418;7.286;2022-11-20T14:21:44;18.13;;;9.75;;
52854;SDS011;38719;51.418;7.286;2022-11-20T14:24:12;19.15;;;10.45;;
52854;SDS011;38719;51.418;7.286;2022-11-20T14:26:42;17.42;;;9.32;;
52854;SDS011;38719;51.418;7.286;2022-11-20T14:29:12;17.05;;;9.45;;
52854;SDS011;38719;51.418;7.286;2022-11-20T14:31:41;17.83;;;9.35;;
52854;SDS011;38719;51.418;7.286;2022-11-20T14:34:13;18.30;;;9.55;;
52854;SDS011;38719;51.418;7.286;2022-11-20T14:36:44;21.13;;;10.48;;
52854;SDS011;38719;51.418;7.286;2022-11-20T14:39:12;22.10;;;10.63;;
52854;SDS011;38719;51.418;7.286;2022-11-20T14:41:51;17.70;;;9.18;;
52854;SDS011;38719;51.418;7.286;2022-11-20T14:44:20;19.08;;;9.63;;
52854;SDS011;38719;51.418;7.286;2022-11-20T14:46:58;17.70;;;10.00;;
52854;SDS011;38719;51.418;7.286;2022-11-20T14:49:29;21.27;;;10.93;;
52854;SDS011;38719;51.418;7.286;2022-11-20T14:51:58;18.67;;;10.00;;
52854;SDS011;38719;51.418;7.286;2022-11-20T14:54:27;22.10;;;11.25;;
52854;SDS011;38719;51.418;7.286;2022-11-20T14:56:58;21.42;;;10.65;;
52854;SDS011;38719;51.418;7.286;2022-11-20T14:59:28;20.33;;;11.05;;